Time;durP1;ratioP1;P1;durP2;ratioP2;P2;SDS_P1;SDS_P2;PMS_P1;PMS_P2;Temp;Humidity;BMP_temperature;BMP_pressure;BME280_temperature;BME280_humidity;BME280_pressure;Samples;Min_cycle;Max_cycle;Signal;HPM_P1;HPM_P2
2023/03/29 00:03:17;;;;;;;3.05;1.52;;;;;;;;;;10519341;28;20024;-75
2023/03/29 00:08:22;;;;;;;2.60;1.53;;;;;;;;;;10518107;28;20493;-75
2023/03/29 00:13:25;;;;;;;2.08;0.80;;;;;;;;;;10517051;28;20522;-75
2023/03/29 00:18:29;;;;;;;4.20;1.70;;;;;;;;;;10519690;28;20072;-75
2023/03/29 00:23:34;;;;;;;3.03;1.60;;;;;;;;;;10512850;28;20136;-75
2023/03/29 00:28:36;;;;;;;;;;;;;;;;;;10494867;28;20040;-74
2023/03/29 00:33:40;;;;;;;1.73;1.35;;;;;;;;;;10500234;28;20413;-78
2023/03/29 00:38:44;;;;;;;1.00;0.73;;;;;;;;;;10514383;28;20404;-75
2023/03/29 00:43:51;;;;;;;2.83;1.30;;;;;;;;;;10517834;28;20112;-75
2023/03/29 00:48:55;;;;;;;2.30;0.80;;;;;;;;;;10496142;28;20123;-76
2023/03/29 00:53:57;;;;;;;;;;;;;;;;;;10510993;28;20049;-76
2023/03/29 00:59:03;;;;;;;0.60;0.50;;;;;;;;;;10514457;28;20307;-76
2023/03/29 01:04:16;;;;;;;0.95;0.70;;;;;;;;;;10513230;28;20036;-76
2023/03/29 01:09:21;;;;;;;2.30;1.20;;;;;;;;;;10489951;28;20117;-75
2023/03/29 01:14:29;;;;;;;3.00;1.23;;;;;;;;;;10521241;28;20038;-74
2023/03/29 01:19:35;;;;;;;0.70;0.68;;;;;;;;;;10512896;28;20127;-75
2023/03/29 01:24:44;;;;;;;2.55;1.10;;;;;;;;;;10513036;28;20036;-76
2023/03/29 01:29:48;;;;;;;3.15;1.15;;;;;;;;;;10502241;28;20046;-75
2023/03/29 01:35:09;;;;;;;1.50;1.00;;;;;;;;;;10516256;28;20506;-76
2023/03/29 01:40:12;;;;;;;1.98;1.20;;;;;;;;;;10509477;28;20040;-76
2023/03/29 01:45:20;;;;;;;1.67;1.00;;;;;;;;;;10494274;28;20127;-74
2023/03/29 01:50:27;;;;;;;2.17;1.20;;;;;;;;;;10521713;28;20055;-73
2023/03/29 01:55:32;;;;;;;2.53;1.20;;;;;;;;;;10513276;28;20119;-74
2023/03/29 02:00:48;;;;;;;2.40;1.13;;;;;;;;;;10510709;28;20044;-75
2023/03/29 02:05:52;;;;;;;2.30;0.85;;;;;;;;;;10515806;28;20394;-75
2023/03/29 02:10:55;;;;;;;2.63;0.50;;;;;;;;;;10508132;28;20082;-75
2023/03/29 02:16:01;;;;;;;3.07;1.17;;;;;;;;;;10509653;28;20033;-74
2023/03/29 02:21:05;;;;;;;1.50;0.90;;;;;;;;;;10499606;28;20527;-74
2023/03/29 02:26:08;;;;;;;4.18;0.85;;;;;;;;;;10507496;28;20782;-75
2023/03/29 02:31:16;;;;;;;1.40;0.90;;;;;;;;;;10511311;28;20366;-75
2023/03/29 02:36:21;;;;;;;1.55;0.93;;;;;;;;;;10509972;28;20050;-76
2023/03/29 02:41:30;;;;;;;1.25;0.70;;;;;;;;;;10516422;28;20383;-76
2023/03/29 02:46:36;;;;;;;1.07;0.50;;;;;;;;;;10519713;28;20038;-76
2023/03/29 02:51:39;;;;;;;1.33;0.85;;;;;;;;;;10522304;28;20062;-76
2023/03/29 02:56:43;;;;;;;0.38;0.38;;;;;;;;;;10519578;28;20286;-75
2023/03/29 03:01:48;;;;;;;0.70;0.50;;;;;;;;;;10520065;28;20123;-74
2023/03/29 03:06:53;;;;;;;2.42;0.90;;;;;;;;;;10517842;28;20036;-77
2023/03/29 03:12:06;;;;;;;1.75;0.77;;;;;;;;;;10516737;28;20036;-75
2023/03/29 03:17:11;;;;;;;1.92;1.05;;;;;;;;;;10516596;28;20045;-76
2023/03/29 03:22:14;;;;;;;0.35;0.35;;;;;;;;;;10520552;28;20455;-76
2023/03/29 03:27:17;;;;;;;0.80;0.43;;;;;;;;;;10521077;28;20508;-75
2023/03/29 03:32:22;;;;;;;0.88;0.63;;;;;;;;;;10521428;28;20135;-75
2023/03/29 03:37:26;;;;;;;0.30;0.30;;;;;;;;;;10522037;28;20035;-76
2023/03/29 03:42:31;;;;;;;1.83;0.80;;;;;;;;;;10523439;28;20064;-76
2023/03/29 03:47:36;;;;;;;2.15;1.33;;;;;;;;;;10515510;28;20049;-76
2023/03/29 03:52:39;;;;;;;1.13;0.65;;;;;;;;;;10518952;28;20102;-75
2023/03/29 03:57:52;;;;;;;1.65;1.05;;;;;;;;;;10524359;28;20028;-74
2023/03/29 04:02:57;;;;;;;1.70;0.70;;;;;;;;;;10531832;28;20433;-74
2023/03/29 04:08:00;;;;;;;1.23;0.90;;;;;;;;;;10520940;28;20068;-76
2023/03/29 04:13:04;;;;;;;1.17;0.63;;;;;;;;;;10518857;28;20060;-75
2023/03/29 04:18:09;;;;;;;2.00;1.05;;;;;;;;;;10513260;28;20120;-74
2023/03/29 04:23:11;;;;;;;1.38;1.00;;;;;;;;;;10514210;28;20076;-75
2023/03/29 04:28:15;;;;;;;1.75;1.05;;;;;;;;;;10518148;28;20214;-76
2023/03/29 04:33:19;;;;;;;0.68;0.60;;;;;;;;;;10515599;28;20032;-78
2023/03/29 04:38:23;;;;;;;1.35;0.60;;;;;;;;;;10517605;28;20040;-76
2023/03/29 04:43:26;;;;;;;1.30;0.80;;;;;;;;;;10528937;28;20055;-75
2023/03/29 04:48:32;;;;;;;0.13;0.10;;;;;;;;;;10522435;28;20634;-75
2023/03/29 04:53:35;;;;;;;0.55;0.30;;;;;;;;;;10488455;28;20044;-75
2023/03/29 04:58:38;;;;;;;1.37;0.70;;;;;;;;;;10511664;28;20093;-74
2023/03/29 05:03:42;;;;;;;0.98;0.70;;;;;;;;;;10495426;28;20044;-74
2023/03/29 05:08:45;;;;;;;1.90;0.98;;;;;;;;;;10510803;28;20109;-74
2023/03/29 05:13:47;;;;;;;1.45;0.85;;;;;;;;;;10513170;28;20054;-75
2023/03/29 05:18:51;;;;;;;2.50;0.57;;;;;;;;;;10519390;28;20320;-75
2023/03/29 05:23:55;;;;;;;1.13;0.50;;;;;;;;;;10513242;28;20109;-74
2023/03/29 05:28:57;;;;;;;3.47;1.15;;;;;;;;;;10516915;28;20059;-75
2023/03/29 05:34:01;;;;;;;2.17;0.55;;;;;;;;;;10519854;28;20502;-76
2023/03/29 05:39:05;;;;;;;0.57;0.45;;;;;;;;;;10518425;28;20429;-75
2023/03/29 05:44:07;;;;;;;2.20;0.73;;;;;;;;;;10514646;28;20479;-76
2023/03/29 05:49:12;;;;;;;1.50;0.70;;;;;;;;;;10506209;28;20036;-76
2023/03/29 05:54:15;;;;;;;1.88;0.82;;;;;;;;;;10516387;28;20150;-74
2023/03/29 05:59:19;;;;;;;0.35;0.35;;;;;;;;;;10513626;28;20040;-73
2023/03/29 06:04:23;;;;;;;0.90;0.57;;;;;;;;;;10516174;28;20040;-75
2023/03/29 06:09:26;;;;;;;0.85;0.63;;;;;;;;;;10512207;28;20074;-75
2023/03/29 06:14:28;;;;;;;0.95;0.55;;;;;;;;;;10507835;28;20044;-74
2023/03/29 06:19:33;;;;;;;1.92;1.05;;;;;;;;;;10523670;28;20279;-74
2023/03/29 06:24:35;;;;;;;3.90;0.77;;;;;;;;;;10528074;28;20040;-75
2023/03/29 06:29:38;;;;;;;3.20;0.65;;;;;;;;;;10510000;28;20043;-75
2023/03/29 06:34:42;;;;;;;0.98;0.47;;;;;;;;;;10519201;28;20036;-74
2023/03/29 06:39:51;;;;;;;0.93;0.45;;;;;;;;;;10518007;28;20067;-75
2023/03/29 06:44:55;;;;;;;0.32;0.15;;;;;;;;;;10503210;28;20044;-74
2023/03/29 06:49:59;;;;;;;2.67;1.00;;;;;;;;;;10527388;28;20061;-75
2023/03/29 06:55:06;;;;;;;4.05;1.98;;;;;;;;;;10524954;28;20059;-76
2023/03/29 07:00:17;;;;;;;1.60;1.05;;;;;;;;;;10503864;28;20105;-76
2023/03/29 07:05:21;;;;;;;1.77;0.73;;;;;;;;;;10508555;28;20036;-76
2023/03/29 07:10:27;;;;;;;1.50;0.50;;;;;;;;;;10524312;28;20043;-75
2023/03/29 07:15:29;;;;;;;0.47;0.45;;;;;;;;;;10518605;28;20043;-75
2023/03/29 07:20:33;;;;;;;0.20;0.20;;;;;;;;;;10525277;28;20047;-77
2023/03/29 07:25:37;;;;;;;1.67;0.80;;;;;;;;;;10516345;28;20044;-75
2023/03/29 07:30:40;;;;;;;1.97;0.70;;;;;;;;;;10501965;28;20040;-75
2023/03/29 07:35:46;;;;;;;0.68;0.68;;;;;;;;;;10521416;28;20032;-74
2023/03/29 07:40:49;;;;;;;3.30;1.10;;;;;;;;;;10517393;28;20035;-74
2023/03/29 07:45:53;;;;;;;4.25;1.30;;;;;;;;;;10521435;28;20032;-74
2023/03/29 07:50:57;;;;;;;2.10;1.30;;;;;;;;;;10496108;28;20058;-77
2023/03/29 07:56:00;;;;;;;2.33;1.23;;;;;;;;;;10512584;28;20051;-75
2023/03/29 08:01:03;;;;;;;2.30;0.95;;;;;;;;;;10521364;28;20126;-75
2023/03/29 08:06:08;;;;;;;2.17;0.90;;;;;;;;;;10498104;28;20406;-74
2023/03/29 08:11:12;;;;;;;3.03;0.95;;;;;;;;;;10519203;28;20097;-75
2023/03/29 08:16:16;;;;;;;1.13;0.85;;;;;;;;;;10519516;28;20042;-75
2023/03/29 08:21:20;;;;;;;0.73;0.55;;;;;;;;;;10519090;28;20062;-75
2023/03/29 08:26:23;;;;;;;2.10;0.85;;;;;;;;;;10498089;28;20553;-75
2023/03/29 08:31:26;;;;;;;1.77;0.68;;;;;;;;;;10522178;28;20056;-75
2023/03/29 08:36:31;;;;;;;2.58;0.85;;;;;;;;;;10517405;28;20042;-76
2023/03/29 08:41:38;;;;;;;3.97;1.08;;;;;;;;;;10521349;28;20170;-76
2023/03/29 08:46:44;;;;;;;1.58;0.70;;;;;;;;;;10519989;28;20488;-77
2023/03/29 08:51:50;;;;;;;1.05;0.75;;;;;;;;;;10520764;28;20790;-75
2023/03/29 08:56:58;;;;;;;3.95;0.88;;;;;;;;;;10514353;28;20079;-74
2023/03/29 09:02:02;;;;;;;2.97;1.15;;;;;;;;;;10534392;27;20097;-74
2023/03/29 09:07:08;;;;;;;2.70;1.00;;;;;;;;;;10520535;28;20174;-73
2023/03/29 09:12:26;;;;;;;2.00;0.93;;;;;;;;;;10520449;28;20132;-74
2023/03/29 09:17:34;;;;;;;1.33;0.82;;;;;;;;;;10515942;28;20421;-74
2023/03/29 09:22:43;;;;;;;1.05;0.80;;;;;;;;;;10518424;28;20147;-74
2023/03/29 09:27:48;;;;;;;1.48;0.85;;;;;;;;;;10520837;28;20050;-74
2023/03/29 09:32:52;;;;;;;3.30;1.05;;;;;;;;;;10523837;28;20128;-74
2023/03/29 09:37:58;;;;;;;5.13;1.00;;;;;;;;;;10522308;28;20439;-75
2023/03/29 09:43:04;;;;;;;1.38;1.13;;;;;;;;;;10493114;28;20049;-75
2023/03/29 09:48:11;;;;;;;2.53;1.17;;;;;;;;;;10514601;28;20147;-75
2023/03/29 09:53:17;;;;;;;1.50;0.70;;;;;;;;;;10523379;28;20805;-75
2023/03/29 09:58:23;;;;;;;4.55;0.88;;;;;;;;;;10521606;28;20093;-75
2023/03/29 10:03:27;;;;;;;2.10;0.80;;;;;;;;;;10526789;28;20028;-76
2023/03/29 10:08:36;;;;;;;1.35;0.80;;;;;;;;;;10525295;28;20363;-76
2023/03/29 10:13:43;;;;;;;0.95;0.77;;;;;;;;;;10523383;28;20062;-75
2023/03/29 10:18:48;;;;;;;1.65;0.80;;;;;;;;;;10522810;28;20036;-75
2023/03/29 10:23:58;;;;;;;1.40;0.70;;;;;;;;;;10523877;28;20047;-76
2023/03/29 10:29:02;;;;;;;2.50;0.80;;;;;;;;;;10517199;28;20033;-76
2023/03/29 10:34:06;;;;;;;1.85;0.77;;;;;;;;;;10522670;28;20421;-76
2023/03/29 10:39:14;;;;;;;3.97;1.00;;;;;;;;;;10524171;28;20413;-76
2023/03/29 10:44:25;;;;;;;4.43;1.05;;;;;;;;;;10515995;28;20052;-76
2023/03/29 10:49:28;;;;;;;1.35;0.65;;;;;;;;;;10520407;28;20508;-77
2023/03/29 10:54:32;;;;;;;1.00;0.80;;;;;;;;;;10521615;28;20146;-75
2023/03/29 10:59:40;;;;;;;1.10;0.80;;;;;;;;;;10504669;28;20294;-76
2023/03/29 11:04:45;;;;;;;1.80;1.33;;;;;;;;;;10518559;28;20130;-76
2023/03/29 11:09:55;;;;;;;2.08;0.85;;;;;;;;;;10521613;28;20044;-76
2023/03/29 11:15:03;;;;;;;1.70;0.90;;;;;;;;;;10519823;28;20043;-76
2023/03/29 11:20:16;;;;;;;1.95;0.73;;;;;;;;;;10517814;28;20048;-75
2023/03/29 11:25:36;;;;;;;1.55;1.08;;;;;;;;;;10503943;28;20043;-77
2023/03/29 11:30:38;;;;;;;;;;;;;;;;;;10521184;28;20094;-75
2023/03/29 11:35:48;;;;;;;3.63;1.00;;;;;;;;;;10522488;28;20381;-76
2023/03/29 11:41:04;;;;;;;1.40;0.90;;;;;;;;;;10518561;28;20043;-75
2023/03/29 11:46:09;;;;;;;2.08;1.10;;;;;;;;;;10523822;28;20040;-77
2023/03/29 11:51:14;;;;;;;1.45;0.95;;;;;;;;;;10519551;28;20405;-74
2023/03/29 11:56:22;;;;;;;8.57;1.70;;;;;;;;;;10513543;28;20024;-77
2023/03/29 12:01:30;;;;;;;2.00;1.05;;;;;;;;;;10517348;28;20113;-76
2023/03/29 12:06:37;;;;;;;4.28;1.20;;;;;;;;;;10518920;28;20050;-75
2023/03/29 12:11:45;;;;;;;2.38;0.80;;;;;;;;;;10503092;28;20485;-75
2023/03/29 12:16:53;;;;;;;1.77;1.15;;;;;;;;;;10522489;28;20085;-76
2023/03/29 12:21:56;;;;;;;3.25;1.00;;;;;;;;;;10516908;28;20044;-76
2023/03/29 12:27:11;;;;;;;1.65;0.80;;;;;;;;;;10517749;28;20396;-75
2023/03/29 12:32:21;;;;;;;0.88;0.68;;;;;;;;;;10513886;28;20978;-75
2023/03/29 12:37:41;;;;;;;1.70;0.70;;;;;;;;;;10499086;28;20408;-76
2023/03/29 12:42:46;;;;;;;1.55;0.80;;;;;;;;;;10516203;28;20373;-76
2023/03/29 12:47:50;;;;;;;4.22;1.15;;;;;;;;;;10499998;28;20131;-75
2023/03/29 12:52:53;;;;;;;1.73;0.90;;;;;;;;;;10519594;28;20044;-75
2023/03/29 12:58:04;;;;;;;4.80;1.20;;;;;;;;;;10522095;28;20040;-76
2023/03/29 13:03:20;;;;;;;5.05;2.35;;;;;;;;;;10516486;28;20410;-75
2023/03/29 13:08:26;;;;;;;5.95;2.67;;;;;;;;;;10500183;28;20042;-75
2023/03/29 13:13:33;;;;;;;5.45;1.85;;;;;;;;;;10517096;28;20164;-75
2023/03/29 13:18:41;;;;;;;5.57;1.45;;;;;;;;;;10515245;28;20083;-75
2023/03/29 13:23:51;;;;;;;3.35;1.45;;;;;;;;;;10512370;28;20058;-75
2023/03/29 13:29:05;;;;;;;3.78;1.65;;;;;;;;;;10514505;28;20044;-76
2023/03/29 13:34:13;;;;;;;4.80;2.03;;;;;;;;;;10519989;28;20566;-76
2023/03/29 13:39:16;;;;;;;;;;;;;;;;;;10515409;28;20413;-75
2023/03/29 13:44:19;;;;;;;;;;;;;;;;;;10512934;28;20488;-76
2023/03/29 13:49:21;;;;;;;;;;;;;;;;;;10518862;28;20333;-76
2023/03/29 13:54:25;;;;;;;;;;;;;;;;;;10507855;28;20300;-76
2023/03/29 13:59:31;;;;;;;1.98;1.10;;;;;;;;;;10523328;28;19942;-77
2023/03/29 14:04:37;;;;;;;3.65;1.65;;;;;;;;;;10519410;28;20067;-76
2023/03/29 14:09:40;;;;;;;;;;;;;;;;;;10519846;28;20044;-76
2023/03/29 14:14:45;;;;;;;2.47;0.88;;;;;;;;;;10525791;28;19927;-76
2023/03/29 14:20:01;;;;;;;0.77;0.70;;;;;;;;;;10516627;28;20478;-75
2023/03/29 14:25:06;;;;;;;2.85;0.98;;;;;;;;;;10517350;28;20051;-76
2023/03/29 14:30:22;;;;;;;2.15;0.80;;;;;;;;;;10521484;28;20492;-75
2023/03/29 14:35:31;;;;;;;2.22;0.70;;;;;;;;;;10517926;28;20048;-75
2023/03/29 14:40:43;;;;;;;;;;;;;;;;;;10530761;28;20032;-75
2023/03/29 14:45:48;;;;;;;2.33;0.90;;;;;;;;;;10508404;28;19967;-77
2023/03/29 14:50:52;;;;;;;5.78;0.82;;;;;;;;;;10522252;28;20036;-76
2023/03/29 14:55:59;;;;;;;2.22;0.70;;;;;;;;;;10521382;28;20051;-77
2023/03/29 15:01:06;;;;;;;6.03;1.25;;;;;;;;;;10522798;28;20054;-74
2023/03/29 15:06:10;;;;;;;3.67;1.00;;;;;;;;;;10525315;28;20054;-75
2023/03/29 15:11:14;;;;;;;3.92;1.08;;;;;;;;;;10520561;28;20071;-76
2023/03/29 15:16:21;;;;;;;2.25;1.10;;;;;;;;;;10523466;28;20392;-76
2023/03/29 15:21:27;;;;;;;7.95;1.27;;;;;;;;;;10515719;28;20142;-75
2023/03/29 15:26:31;;;;;;;4.82;0.90;;;;;;;;;;10503153;28;20044;-76
2023/03/29 15:31:36;;;;;;;5.97;0.93;;;;;;;;;;10493490;28;20533;-77
2023/03/29 15:36:40;;;;;;;6.22;1.00;;;;;;;;;;10517891;28;20044;-77
2023/03/29 15:41:45;;;;;;;3.78;0.93;;;;;;;;;;10514530;28;20032;-75
2023/03/29 15:46:50;;;;;;;2.42;1.15;;;;;;;;;;10514699;28;20044;-75
2023/03/29 15:51:53;;;;;;;2.15;0.80;;;;;;;;;;10513723;28;20387;-76
2023/03/29 15:56:59;;;;;;;1.77;1.02;;;;;;;;;;10505643;28;20123;-76
2023/03/29 16:02:04;;;;;;;2.40;1.02;;;;;;;;;;10512152;28;20413;-76
2023/03/29 16:07:10;;;;;;;3.63;0.75;;;;;;;;;;10512520;28;20048;-77
2023/03/29 16:12:14;;;;;;;1.95;0.73;;;;;;;;;;10514587;28;20071;-76
2023/03/29 16:17:19;;;;;;;1.85;0.70;;;;;;;;;;10491391;28;20040;-75
2023/03/29 16:22:23;;;;;;;1.92;0.98;;;;;;;;;;10514490;28;20055;-77
2023/03/29 16:27:25;;;;;;;2.47;1.15;;;;;;;;;;10513202;28;20674;-76
2023/03/29 16:32:39;;;;;;;3.75;1.02;;;;;;;;;;10497154;28;20067;-76
2023/03/29 16:37:43;;;;;;;2.25;1.02;;;;;;;;;;10513196;28;20054;-76
2023/03/29 16:42:47;;;;;;;3.28;1.25;;;;;;;;;;10513790;28;20036;-76
2023/03/29 16:47:53;;;;;;;1.83;1.00;;;;;;;;;;10512798;28;20046;-76
2023/03/29 16:52:56;;;;;;;5.85;2.00;;;;;;;;;;10516964;28;20082;-76
2023/03/29 16:57:59;;;;;;;1.55;0.88;;;;;;;;;;10521287;28;20056;-76
2023/03/29 17:03:04;;;;;;;2.47;1.15;;;;;;;;;;10511815;28;20048;-76
2023/03/29 17:08:08;;;;;;;5.55;1.90;;;;;;;;;;10517724;28;20179;-76
2023/03/29 17:13:11;;;;;;;1.27;1.02;;;;;;;;;;10514506;28;20067;-76
2023/03/29 17:18:16;;;;;;;3.20;1.27;;;;;;;;;;10511235;28;20036;-76
2023/03/29 17:23:19;;;;;;;10.07;2.40;;;;;;;;;;10512526;28;20059;-76
2023/03/29 17:28:23;;;;;;;9.93;1.67;;;;;;;;;;10516964;28;20072;-76
2023/03/29 17:33:28;;;;;;;5.20;1.83;;;;;;;;;;10514493;28;20293;-77
2023/03/29 17:38:32;;;;;;;3.85;1.85;;;;;;;;;;10515051;28;20044;-76
2023/03/29 17:43:36;;;;;;;8.77;3.17;;;;;;;;;;10517913;28;20044;-79
2023/03/29 17:48:40;;;;;;;4.97;2.38;;;;;;;;;;10518746;28;20040;-76
2023/03/29 17:53:43;;;;;;;7.65;2.47;;;;;;;;;;10514038;28;20036;-76
2023/03/29 17:58:47;;;;;;;6.10;2.60;;;;;;;;;;10513728;28;20028;-75
2023/03/29 18:03:55;;;;;;;6.75;2.47;;;;;;;;;;10514154;28;20128;-76
2023/03/29 18:09:00;;;;;;;9.15;4.03;;;;;;;;;;10518887;28;20036;-77
2023/03/29 18:14:04;;;;;;;21.48;5.78;;;;;;;;;;10533037;28;20062;-82
2023/03/29 18:19:09;;;;;;;14.35;3.78;;;;;;;;;;10533664;28;20036;-76
2023/03/29 18:24:12;;;;;;;15.07;4.82;;;;;;;;;;10530897;28;20417;-77
2023/03/29 18:29:16;;;;;;;13.30;4.75;;;;;;;;;;10530096;28;20046;-77
2023/03/29 18:34:20;;;;;;;11.85;4.03;;;;;;;;;;10524667;28;20036;-78
2023/03/29 18:39:24;;;;;;;15.60;5.20;;;;;;;;;;10521983;28;20664;-76
2023/03/29 18:44:27;;;;;;;16.92;5.70;;;;;;;;;;10528379;28;20040;-76
2023/03/29 18:49:32;;;;;;;14.57;5.22;;;;;;;;;;10528788;28;20032;-77
2023/03/29 18:54:35;;;;;;;19.45;6.38;;;;;;;;;;10529593;28;20122;-76
2023/03/29 18:59:38;;;;;;;21.58;6.18;;;;;;;;;;10528837;28;20393;-76
2023/03/29 19:04:43;;;;;;;16.88;5.95;;;;;;;;;;10528272;28;20040;-76
2023/03/29 19:09:46;;;;;;;37.67;9.55;;;;;;;;;;10510908;28;20052;-77
2023/03/29 19:14:49;;;;;;;14.93;3.78;;;;;;;;;;10533319;28;20042;-77
2023/03/29 19:19:53;;;;;;;26.75;7.22;;;;;;;;;;10526364;28;20036;-76
2023/03/29 19:25:06;;;;;;;4.60;2.47;;;;;;;;;;10544075;28;20102;-76
2023/03/29 19:30:10;;;;;;;18.80;6.03;;;;;;;;;;10528935;28;20055;-77
2023/03/29 19:35:20;;;;;;;8.45;2.35;;;;;;;;;;10525329;28;20413;-77
2023/03/29 19:40:33;;;;;;;7.78;2.03;;;;;;;;;;10519155;28;20131;-77
2023/03/29 19:45:39;;;;;;;10.27;3.58;;;;;;;;;;10515239;28;20064;-77
2023/03/29 19:50:46;;;;;;;6.50;1.95;;;;;;;;;;10533828;28;20036;-75
2023/03/29 19:55:49;;;;;;;6.25;2.95;;;;;;;;;;10532247;28;20185;-76
2023/03/29 20:00:52;;;;;;;8.93;3.03;;;;;;;;;;10534122;28;20039;-75
2023/03/29 20:05:57;;;;;;;6.25;2.92;;;;;;;;;;10514476;28;20053;-76
2023/03/29 20:11:01;;;;;;;5.22;2.13;;;;;;;;;;10514633;28;20047;-75
2023/03/29 20:16:06;;;;;;;9.00;2.95;;;;;;;;;;10531134;28;20047;-76
2023/03/29 20:21:17;;;;;;;6.50;2.40;;;;;;;;;;10515909;28;20129;-76
2023/03/29 20:26:21;;;;;;;4.03;1.13;;;;;;;;;;10532273;28;20061;-75
2023/03/29 20:31:24;;;;;;;7.17;1.90;;;;;;;;;;10513183;28;20044;-75
2023/03/29 20:36:30;;;;;;;7.22;2.22;;;;;;;;;;10526843;28;20040;-76
2023/03/29 20:41:37;;;;;;;5.82;1.80;;;;;;;;;;10514384;28;20385;-77
2023/03/29 20:47:00;;;;;;;7.60;2.15;;;;;;;;;;10498379;28;20044;-78
2023/03/29 20:52:07;;;;;;;7.15;1.95;;;;;;;;;;10516289;28;20383;-78
2023/03/29 20:57:12;;;;;;;7.40;2.17;;;;;;;;;;10500155;28;20063;-77
2023/03/29 21:02:17;;;;;;;6.75;1.63;;;;;;;;;;10521338;28;20072;-78
2023/03/29 21:07:21;;;;;;;12.82;2.42;;;;;;;;;;10518843;28;20508;-77
2023/03/29 21:12:25;;;;;;;3.78;1.38;;;;;;;;;;10518980;28;20109;-76
2023/03/29 21:17:27;;;;;;;2.78;1.42;;;;;;;;;;10508797;28;20048;-78
2023/03/29 21:22:33;;;;;;;2.88;1.23;;;;;;;;;;10517017;28;20567;-79
2023/03/29 21:27:36;;;;;;;4.00;1.35;;;;;;;;;;10517724;28;20347;-77
2023/03/29 21:32:39;;;;;;;7.43;1.90;;;;;;;;;;10519681;28;20051;-80
2023/03/29 21:37:43;;;;;;;7.55;1.92;;;;;;;;;;10517703;28;20058;-77
2023/03/29 21:42:47;;;;;;;2.63;0.98;;;;;;;;;;10497460;28;20067;-76
2023/03/29 21:47:50;;;;;;;6.55;2.13;;;;;;;;;;10521089;28;20032;-78
2023/03/29 21:52:54;;;;;;;6.00;1.70;;;;;;;;;;10526217;28;20123;-79
2023/03/29 21:58:07;;;;;;;3.25;1.42;;;;;;;;;;10502693;28;20055;-79
2023/03/29 22:03:10;;;;;;;7.03;1.95;;;;;;;;;;10526609;28;20119;-79
2023/03/29 22:08:25;;;;;;;8.65;1.63;;;;;;;;;;10520320;28;20459;-80
2023/03/29 22:13:28;;;;;;;3.88;1.30;;;;;;;;;;10524974;28;20036;-79
2023/03/29 22:18:41;;;;;;;3.80;1.50;;;;;;;;;;10527029;28;20040;-80
2023/03/29 22:23:46;;;;;;;11.13;1.97;;;;;;;;;;10518175;28;20058;-80
2023/03/29 22:28:49;;;;;;;3.42;1.02;;;;;;;;;;10523811;28;20042;-79
2023/03/29 22:33:52;;;;;;;3.87;1.27;;;;;;;;;;10522084;28;20492;-78
2023/03/29 22:38:56;;;;;;;8.40;1.93;;;;;;;;;;10523491;28;20181;-80
2023/03/29 22:44:00;;;;;;;5.22;1.50;;;;;;;;;;10523207;28;20032;-79
2023/03/29 22:49:04;;;;;;;7.32;1.23;;;;;;;;;;10523104;28;20406;-78
2023/03/29 22:54:09;;;;;;;7.38;1.75;;;;;;;;;;10523980;28;20049;-78
2023/03/29 22:59:11;;;;;;;;;;;;;;;;;;10532263;28;20063;-78
2023/03/29 23:04:14;;;;;;;3.92;1.38;;;;;;;;;;10527941;28;19924;-78
2023/03/29 23:09:19;;;;;;;0.90;0.60;;;;;;;;;;10527782;28;20133;-77
2023/03/29 23:14:22;;;;;;;9.30;2.20;;;;;;;;;;10502420;28;20039;-78
2023/03/29 23:19:25;;;;;;;10.95;1.48;;;;;;;;;;10523801;28;20040;-79
2023/03/29 23:24:30;;;;;;;2.25;1.05;;;;;;;;;;10520277;28;20511;-77
2023/03/29 23:29:36;;;;;;;4.03;1.10;;;;;;;;;;10521294;28;20101;-78
2023/03/29 23:34:39;;;;;;;4.95;1.10;;;;;;;;;;10518130;28;20060;-77
2023/03/29 23:39:44;;;;;;;3.47;1.10;;;;;;;;;;10519239;28;20515;-78
2023/03/29 23:44:47;;;;;;;;;;;;;;;;;;10518934;28;20043;-78
2023/03/29 23:49:52;;;;;;;2.05;1.00;;;;;;;;;;10521003;28;19919;-77
2023/03/29 23:54:56;;;;;;;6.88;1.80;;;;;;;;;;10524103;28;20561;-76
2023/03/29 23:59:59;;;;;;;;;;;;;;;;;;10520607;28;20128;-77
